Time;durP1;ratioP1;P1;durP2;ratioP2;P2;SDS_P1;SDS_P2;PMS_P1;PMS_P2;Temp;Humidity;BMP_temperature;BMP_pressure;BME280_temperature;BME280_humidity;BME280_pressure;Samples;Min_cycle;Max_cycle;Signal;HPM_P1;HPM_P2
2022/03/08 06:35:45;;;;;;;16.70;6.68;;;5.70;99.90;;;;;;5204627;23;20830;-85
2022/03/08 06:38:12;;;;;;;13.38;5.40;;;5.80;99.90;;;;;;4980312;28;20091;-85
2022/03/08 06:40:38;;;;;;;17.85;6.82;;;5.90;99.90;;;;;;4979992;28;20025;-85
2022/03/08 06:43:05;;;;;;;13.38;5.65;;;6.00;99.90;;;;;;4980221;28;20030;-85
2022/03/08 06:45:31;;;;;;;16.05;7.00;;;6.00;99.90;;;;;;4980206;28;20099;-84
2022/03/08 06:47:58;;;;;;;15.65;5.72;;;6.10;99.90;;;;;;4965217;28;20023;-86
2022/03/08 06:50:24;;;;;;;13.70;6.43;;;6.30;99.90;;;;;;4960880;28;20030;-85
2022/03/08 06:52:50;;;;;;;12.30;4.80;;;6.40;99.90;;;;;;4976863;28;20019;-85
2022/03/08 06:55:17;;;;;;;12.02;5.20;;;6.50;99.90;;;;;;4960882;28;20039;-85
2022/03/08 06:57:43;;;;;;;14.90;5.45;;;6.50;99.90;;;;;;4960846;28;20026;-86
2022/03/08 07:00:11;;;;;;;13.75;5.00;;;6.50;99.90;;;;;;4960452;28;20478;-85
2022/03/08 07:02:37;;;;;;;13.52;5.25;;;6.50;99.90;;;;;;4960509;28;20368;-85
2022/03/08 07:05:04;;;;;;;16.42;5.82;;;6.60;99.90;;;;;;4960890;28;20030;-85
2022/03/08 07:07:30;;;;;;;13.10;5.65;;;6.70;99.90;;;;;;4960845;28;20034;-87
2022/03/08 07:09:57;;;;;;;14.57;5.32;;;6.60;99.90;;;;;;4961162;28;20057;-86
2022/03/08 07:12:23;;;;;;;15.10;4.00;;;6.70;99.90;;;;;;4964204;28;20559;-85
2022/03/08 07:14:50;;;;;;;13.70;4.88;;;6.80;99.90;;;;;;4964191;28;20043;-87
2022/03/08 07:17:16;;;;;;;13.00;5.20;;;6.90;99.90;;;;;;4966363;28;20440;-90
2022/03/08 07:19:42;;;;;;;12.68;5.45;;;7.10;99.90;;;;;;4966726;28;20121;-86
2022/03/08 07:22:09;;;;;;;12.63;5.30;;;7.20;99.90;;;;;;4978986;28;20014;-85
2022/03/08 07:24:35;;;;;;;14.60;5.25;;;7.00;99.90;;;;;;4981950;28;20053;-86
2022/03/08 07:27:01;;;;;;;17.67;5.68;;;6.90;99.90;;;;;;4983282;28;20029;-86
2022/03/08 07:29:28;;;;;;;12.35;6.32;;;7.00;99.90;;;;;;4978824;28;20030;-87
2022/03/08 07:31:54;;;;;;;16.00;5.55;;;7.10;99.90;;;;;;4971788;28;20041;-87
2022/03/08 07:34:21;;;;;;;17.52;6.03;;;7.10;99.90;;;;;;4972418;28;20047;-86
2022/03/08 07:36:47;;;;;;;12.80;5.53;;;7.20;99.90;;;;;;4966218;28;20030;-86
2022/03/08 07:39:13;;;;;;;10.82;4.75;;;7.10;99.90;;;;;;4966215;28;20030;-86
2022/03/08 07:41:39;;;;;;;14.25;5.80;;;7.20;99.90;;;;;;4963694;28;20030;-87
2022/03/08 07:44:06;;;;;;;15.50;5.40;;;7.20;99.90;;;;;;4963560;28;20057;-88
2022/03/08 07:46:32;;;;;;;9.48;4.35;;;7.40;99.90;;;;;;4963643;28;20515;-87
2022/03/08 07:48:58;;;;;;;12.27;4.57;;;7.30;99.90;;;;;;4963724;28;20026;-88
2022/03/08 07:51:25;;;;;;;11.13;5.15;;;7.50;99.90;;;;;;4963613;28;20034;-87
2022/03/08 07:53:51;;;;;;;11.00;4.78;;;7.60;99.90;;;;;;4963537;28;20035;-87
2022/03/08 07:56:18;;;;;;;13.10;4.80;;;7.80;99.90;;;;;;4963710;28;20030;-88
2022/03/08 07:58:46;;;;;;;12.77;5.35;;;7.70;99.90;;;;;;4963319;28;20026;-87
2022/03/08 08:01:12;;;;;;;11.07;4.63;;;7.70;99.90;;;;;;4963245;28;20484;-85
2022/03/08 08:03:39;;;;;;;8.95;4.22;;;7.50;99.90;;;;;;4963286;28;20046;-86
2022/03/08 08:06:05;;;;;;;10.85;4.38;;;7.60;99.90;;;;;;4963214;28;20117;-86
2022/03/08 08:08:31;;;;;;;9.10;4.57;;;7.70;99.90;;;;;;4963032;28;20118;-87
2022/03/08 08:10:57;;;;;;;9.13;4.60;;;7.70;99.90;;;;;;4963214;28;20022;-86
2022/03/08 08:13:24;;;;;;;7.40;2.95;;;7.80;99.90;;;;;;4963006;28;20515;-87
2022/03/08 08:15:50;;;;;;;5.38;3.08;;;7.90;99.90;;;;;;4963158;28;20035;-87
2022/03/08 08:18:17;;;;;;;7.28;3.88;;;8.20;99.90;;;;;;4962876;28;20031;-87
2022/03/08 08:20:43;;;;;;;8.48;3.00;;;8.50;99.90;;;;;;4963012;28;20026;-88
2022/03/08 08:23:09;;;;;;;6.18;2.97;;;8.60;99.90;;;;;;4962358;28;20030;-86
2022/03/08 08:25:35;;;;;;;9.07;3.28;;;8.40;99.90;;;;;;4962720;28;20031;-86
2022/03/08 08:28:01;;;;;;;7.68;3.00;;;8.50;99.90;;;;;;4963008;28;20030;-86
2022/03/08 08:30:28;;;;;;;6.05;2.70;;;8.30;99.90;;;;;;4962849;28;20069;-87
2022/03/08 08:32:54;;;;;;;6.97;2.70;;;8.60;99.90;;;;;;4962786;28;20117;-86
2022/03/08 08:35:21;;;;;;;5.45;2.72;;;8.90;99.90;;;;;;4962364;28;20073;-86
2022/03/08 08:37:47;;;;;;;7.13;3.65;;;8.90;99.90;;;;;;4963064;28;20054;-86
2022/03/08 08:40:13;;;;;;;6.75;3.03;;;9.10;99.90;;;;;;4962359;28;20031;-86
2022/03/08 08:42:40;;;;;;;10.40;3.65;;;9.00;99.90;;;;;;4962386;28;20475;-87
2022/03/08 08:45:07;;;;;;;9.77;3.58;;;9.10;99.90;;;;;;4962345;28;20030;-86
2022/03/08 08:47:33;;;;;;;6.90;3.03;;;8.90;99.90;;;;;;4962081;28;20026;-85
2022/03/08 08:50:00;;;;;;;11.80;4.40;;;8.80;99.90;;;;;;4961967;28;20070;-85
2022/03/08 08:52:26;;;;;;;7.28;3.28;;;8.70;99.90;;;;;;4962100;28;20436;-84
2022/03/08 08:54:53;;;;;;;8.30;3.40;;;8.80;99.90;;;;;;4962025;28;20046;-86
2022/03/08 08:57:19;;;;;;;7.43;3.45;;;8.80;99.90;;;;;;4962136;28;20057;-86
2022/03/08 08:59:46;;;;;;;11.30;3.50;;;8.60;99.90;;;;;;4962352;28;20398;-86
2022/03/08 09:02:13;;;;;;;11.35;3.67;;;8.70;99.90;;;;;;4962368;28;20029;-86
2022/03/08 09:04:40;;;;;;;8.38;3.20;;;8.80;99.90;;;;;;4962084;28;20093;-86
2022/03/08 09:07:06;;;;;;;11.50;4.95;;;8.80;99.90;;;;;;4962049;28;20117;-85
2022/03/08 09:09:33;;;;;;;13.27;3.63;;;8.60;99.90;;;;;;4962149;28;20041;-85
2022/03/08 09:11:59;;;;;;;6.82;3.17;;;8.60;99.90;;;;;;4962077;28;20498;-86
2022/03/08 09:14:25;;;;;;;8.15;3.50;;;8.60;99.90;;;;;;4961902;28;20133;-84
2022/03/08 09:16:52;;;;;;;7.85;3.53;;;8.70;99.90;;;;;;4961673;28;20033;-84
2022/03/08 09:19:18;;;;;;;9.63;2.90;;;8.70;99.90;;;;;;4961515;28;20030;-85
2022/03/08 09:21:44;;;;;;;8.13;3.42;;;8.90;99.90;;;;;;4961767;28;20022;-86
2022/03/08 09:24:11;;;;;;;9.20;3.40;;;9.00;99.90;;;;;;4961760;28;20085;-85
2022/03/08 09:26:37;;;;;;;7.45;2.90;;;9.10;99.90;;;;;;4961382;28;20030;-85
2022/03/08 09:29:04;;;;;;;9.50;3.95;;;9.00;99.90;;;;;;4961564;28;20123;-87
2022/03/08 09:31:30;;;;;;;8.65;3.42;;;8.90;99.90;;;;;;4961500;28;20027;-84
2022/03/08 09:33:57;;;;;;;9.23;3.95;;;8.80;99.90;;;;;;4960255;28;20041;-85
2022/03/08 09:36:23;;;;;;;8.68;3.78;;;8.80;99.90;;;;;;4961357;28;20507;-85
2022/03/08 09:38:49;;;;;;;6.30;3.22;;;8.90;99.90;;;;;;4945339;28;20456;-85
2022/03/08 09:41:16;;;;;;;8.40;3.03;;;9.00;99.90;;;;;;4961394;28;20038;-86
2022/03/08 09:43:43;;;;;;;7.78;3.75;;;8.90;99.90;;;;;;4961457;28;20073;-86
2022/03/08 09:46:10;;;;;;;8.40;4.18;;;8.90;99.90;;;;;;4961356;28;20109;-86
2022/03/08 09:48:36;;;;;;;12.05;3.95;;;9.00;99.90;;;;;;4961398;28;20037;-85
2022/03/08 09:51:04;;;;;;;10.40;4.22;;;9.10;99.90;;;;;;4961467;28;20026;-86
2022/03/08 09:53:31;;;;;;;13.43;4.72;;;9.00;99.90;;;;;;4961304;28;20053;-87
2022/03/08 09:55:59;;;;;;;12.00;5.05;;;8.90;99.90;;;;;;4961330;28;20037;-86
2022/03/08 09:58:26;;;;;;;8.77;3.20;;;8.80;99.90;;;;;;4961377;28;20080;-86
2022/03/08 10:00:55;;;;;;;4.15;2.17;;;8.60;99.90;;;;;;4977422;28;20062;-85
2022/03/08 10:03:36;;;;;;;5.20;2.55;;;8.50;99.90;;;;;;4961238;28;20487;-86
2022/03/08 10:06:04;;;;;;;7.13;2.97;;;8.40;99.90;;;;;;4961091;28;20081;-85
2022/03/08 10:08:30;;;;;;;8.52;3.15;;;8.20;99.90;;;;;;4961075;28;20022;-86
2022/03/08 10:11:03;;;;;;;6.10;2.55;;;8.10;99.90;;;;;;4961066;28;20026;-85
2022/03/08 10:13:38;;;;;;;8.75;3.47;;;8.10;99.90;;;;;;4961207;28;20041;-84
2022/03/08 10:16:12;;;;;;;7.95;3.17;;;8.30;99.90;;;;;;4961007;28;20054;-85
2022/03/08 10:18:48;;;;;;;4.45;2.45;;;8.40;99.90;;;;;;4961165;28;20026;-86
2022/03/08 10:21:34;;;;;;;4.55;2.35;;;8.30;99.90;;;;;;4961004;28;20034;-86
2022/03/08 10:24:02;;;;;;;6.85;2.78;;;8.10;99.90;;;;;;4961461;28;20387;-86
2022/03/08 10:26:29;;;;;;;7.57;2.88;;;7.90;99.90;;;;;;4960997;28;20588;-86
2022/03/08 10:28:57;;;;;;;6.55;2.67;;;7.70;99.90;;;;;;4961188;28;20039;-88
2022/03/08 10:31:24;;;;;;;5.28;2.72;;;7.50;99.90;;;;;;4961362;28;20027;-89
2022/03/08 10:33:51;;;;;;;7.90;3.33;;;7.30;99.90;;;;;;4961326;28;20038;-87
2022/03/08 10:36:21;;;;;;;9.80;4.50;;;7.20;99.90;;;;;;4961112;28;20042;-87
2022/03/08 10:39:14;;;;;;;8.63;3.97;;;7.10;99.90;;;;;;4961027;28;20039;-86
2022/03/08 10:41:52;;;;;;;8.85;3.80;;;7.00;99.90;;;;;;4961361;28;20042;-88
2022/03/08 10:44:40;;;;;;;11.95;4.22;;;7.00;99.90;;;;;;4961320;28;20118;-88
2022/03/08 10:47:12;;;;;;;11.25;4.10;;;6.90;99.90;;;;;;4964085;28;20022;-85
2022/03/08 10:49:53;;;;;;;8.05;3.90;;;7.00;99.90;;;;;;4964501;28;20042;-85
2022/03/08 10:52:31;;;;;;;10.73;3.90;;;7.00;99.90;;;;;;4964553;28;20034;-85
2022/03/08 10:55:14;;;;;;;10.45;4.00;;;7.00;99.90;;;;;;4964469;28;20462;-88
2022/03/08 10:57:44;;;;;;;13.13;4.63;;;7.00;99.90;;;;;;4964831;28;20027;-88
2022/03/08 11:00:15;;;;;;;10.93;4.43;;;7.20;99.90;;;;;;4964376;28;20034;-89
2022/03/08 11:02:56;;;;;;;13.50;4.10;;;7.30;99.90;;;;;;4964547;28;20030;-87
2022/03/08 11:05:25;;;;;;;12.70;5.40;;;7.40;99.90;;;;;;4964328;28;20088;-86
2022/03/08 11:07:53;;;;;;;8.30;3.80;;;7.40;99.90;;;;;;4964604;28;20031;-88
2022/03/08 11:10:20;;;;;;;10.00;4.03;;;7.40;99.90;;;;;;4964558;28;20487;-85
2022/03/08 11:12:47;;;;;;;7.72;3.33;;;7.40;99.90;;;;;;4967721;28;20499;-87
2022/03/08 11:15:16;;;;;;;8.23;3.80;;;7.60;99.90;;;;;;4977678;28;20041;-87
2022/03/08 11:17:45;;;;;;;12.70;5.30;;;7.70;99.90;;;;;;4974705;28;20035;-87
2022/03/08 11:20:12;;;;;;;11.30;5.72;;;7.80;99.90;;;;;;4964343;28;20033;-85
2022/03/08 11:22:39;;;;;;;7.03;3.80;;;7.90;99.90;;;;;;4963708;28;20165;-84
2022/03/08 11:25:08;;;;;;;8.68;3.80;;;8.10;99.90;;;;;;4963568;28;20037;-84
2022/03/08 11:27:38;;;;;;;10.88;4.03;;;8.10;99.90;;;;;;4963639;28;20038;-84
2022/03/08 11:30:05;;;;;;;9.77;4.05;;;8.10;99.90;;;;;;4979702;28;20114;-86
2022/03/08 11:33:19;;;;;;;10.80;4.45;;;8.10;99.90;;;;;;4963643;28;20061;-83
2022/03/08 11:36:07;;;;;;;12.30;4.97;;;7.80;99.90;;;;;;4954836;28;20051;-85
2022/03/08 11:38:33;;;;;;;9.43;4.68;;;7.80;99.90;;;;;;4976360;28;20053;-85
2022/03/08 11:41:00;;;;;;;11.15;5.05;;;8.00;99.90;;;;;;4960350;28;20019;-86
2022/03/08 11:45:25;;;;;;;13.70;5.47;;;8.40;99.90;;;;;;5113157;27;20354;-88
2022/03/08 11:47:53;;;;;;;9.85;4.97;;;8.50;99.90;;;;;;5094239;28;20032;-86
2022/03/08 11:50:34;;;;;;;11.48;3.97;;;8.70;99.90;;;;;;5111831;28;20077;-86
2022/03/08 11:53:06;;;;;;;7.95;4.15;;;8.60;99.90;;;;;;5093882;28;20059;-87
2022/03/08 11:55:39;;;;;;;6.07;3.55;;;8.50;99.90;;;;;;5077020;28;20028;-88
2022/03/08 11:58:14;;;;;;;22.25;5.03;;;8.50;99.90;;;;;;5074678;28;20540;-84
2022/03/08 12:00:43;;;;;;;11.43;4.25;;;8.50;99.90;;;;;;5076597;28;20044;-83
2022/03/08 12:03:24;;;;;;;6.55;3.28;;;8.20;99.90;;;;;;5076164;28;20080;-84
2022/03/08 12:05:59;;;;;;;6.25;2.95;;;8.20;99.90;;;;;;5076604;28;20028;-85
2022/03/08 12:08:29;;;;;;;8.50;3.30;;;8.30;99.90;;;;;;5076657;28;20115;-85
2022/03/08 12:11:05;;;;;;;4.93;2.90;;;8.10;99.90;;;;;;5077399;28;20027;-85
2022/03/08 12:13:34;;;;;;;17.25;7.03;;;8.20;99.90;;;;;;5076773;28;20092;-85
2022/03/08 12:16:09;;;;;;;9.98;4.00;;;8.20;99.90;;;;;;5076861;28;20054;-85
2022/03/08 12:18:52;;;;;;;8.38;3.00;;;8.00;99.90;;;;;;5076720;28;20036;-85
2022/03/08 12:21:25;;;;;;;6.57;3.22;;;8.30;99.90;;;;;;5076621;28;20036;-88
2022/03/08 12:23:52;;;;;;;8.60;3.67;;;8.40;99.90;;;;;;5076591;28;20071;-87
2022/03/08 12:26:57;;;;;;;8.13;3.15;;;8.50;99.90;;;;;;5076267;28;20122;-88
2022/03/08 12:29:50;;;;;;;9.55;4.15;;;8.20;99.90;;;;;;5076184;28;20030;-88
2022/03/08 12:32:30;;;;;;;9.93;4.20;;;8.00;99.90;;;;;;5095294;28;20028;-88
2022/03/08 12:35:00;;;;;;;9.15;4.15;;;8.30;99.90;;;;;;5076842;28;20024;-88
2022/03/08 12:37:38;;;;;;;9.40;4.68;;;8.10;99.90;;;;;;5076847;28;20031;-87
2022/03/08 12:40:27;;;;;;;8.88;4.50;;;8.30;99.90;;;;;;5076114;28;20055;-88
2022/03/08 12:43:20;;;;;;;12.93;5.30;;;8.30;99.90;;;;;;5075727;28;20085;-89
2022/03/08 12:45:48;;;;;;;10.38;4.72;;;8.20;99.90;;;;;;5073528;28;20096;-86
2022/03/08 12:48:18;;;;;;;15.15;6.13;;;8.20;99.90;;;;;;5075695;28;20028;-86
2022/03/08 12:50:50;;;;;;;14.63;5.47;;;8.10;99.90;;;;;;5075939;28;20024;-87
2022/03/08 12:53:25;;;;;;;11.68;5.30;;;8.00;99.90;;;;;;5075884;28;20077;-86
2022/03/08 12:55:54;;;;;;;13.68;6.00;;;7.90;99.90;;;;;;5065969;28;20032;-88
2022/03/08 12:58:32;;;;;;;9.95;4.45;;;7.90;99.90;;;;;;5062435;28;20020;-85
2022/03/08 13:00:59;;;;;;;7.95;4.45;;;8.00;99.90;;;;;;5062515;28;20024;-87
2022/03/08 13:03:31;;;;;;;12.00;4.32;;;7.90;99.90;;;;;;5062400;28;20060;-87
2022/03/08 13:05:59;;;;;;;7.03;3.58;;;7.80;99.90;;;;;;5062319;28;20074;-87
2022/03/08 13:08:31;;;;;;;7.60;3.80;;;7.80;99.90;;;;;;5062208;28;20028;-88
2022/03/08 13:11:02;;;;;;;7.55;3.67;;;7.80;99.90;;;;;;5062840;28;20032;-88
2022/03/08 13:13:29;;;;;;;7.85;2.75;;;8.10;99.90;;;;;;5062962;28;20024;-89
2022/03/08 13:15:55;;;;;;;6.75;3.13;;;8.40;99.90;;;;;;5062237;28;20031;-90
2022/03/08 13:18:26;;;;;;;4.90;2.60;;;8.30;99.90;;;;;;5062177;28;20051;-89
2022/03/08 13:20:54;;;;;;;6.40;2.78;;;8.30;99.90;;;;;;5062305;28;20055;-90
2022/03/08 13:23:23;;;;;;;7.22;2.78;;;8.20;99.90;;;;;;5061899;28;20126;-87
2022/03/08 13:25:55;;;;;;;6.05;3.22;;;8.30;99.90;;;;;;5059667;28;20606;-87
2022/03/08 13:28:30;;;;;;;7.80;3.80;;;7.80;99.90;;;;;;5061511;28;20073;-89
2022/03/08 13:31:02;;;;;;;15.65;5.72;;;7.40;99.90;;;;;;5060779;28;20078;-87
2022/03/08 13:33:45;;;;;;;13.07;5.32;;;7.20;99.90;;;;;;5061660;28;20024;-85
2022/03/08 13:36:12;;;;;;;11.38;3.92;;;7.00;99.90;;;;;;5077512;28;20035;-86
2022/03/08 13:38:49;;;;;;;6.35;2.92;;;6.90;99.90;;;;;;5061476;28;20024;-86
2022/03/08 13:41:21;;;;;;;9.77;3.90;;;6.80;99.90;;;;;;5061630;28;20031;-86
2022/03/08 13:43:55;;;;;;;9.15;4.95;;;6.80;99.90;;;;;;5061460;28;20048;-86
2022/03/08 13:46:25;;;;;;;7.50;3.22;;;6.90;99.90;;;;;;5061613;28;20028;-87
2022/03/08 13:48:58;;;;;;;7.40;3.60;;;7.10;99.90;;;;;;5061234;28;20020;-87
2022/03/08 13:51:29;;;;;;;8.20;3.38;;;6.90;99.90;;;;;;5061205;28;20028;-85
2022/03/08 13:53:56;;;;;;;7.35;3.83;;;6.70;99.90;;;;;;5061117;28;20032;-87
2022/03/08 13:56:23;;;;;;;4.57;2.47;;;6.50;99.90;;;;;;5078161;28;20473;-86
2022/03/08 13:58:57;;;;;;;8.38;3.17;;;6.30;99.90;;;;;;5077905;28;20558;-89
2022/03/08 14:01:25;;;;;;;10.07;4.20;;;6.30;99.90;;;;;;5077945;28;20028;-87
2022/03/08 14:03:56;;;;;;;7.90;3.42;;;6.10;99.90;;;;;;5077431;28;20036;-86
2022/03/08 14:06:28;;;;;;;6.30;2.97;;;6.00;99.90;;;;;;5077040;28;20028;-87
2022/03/08 14:09:01;;;;;;;9.25;4.00;;;6.00;99.90;;;;;;5077523;28;20115;-87
2022/03/08 14:11:27;;;;;;;10.75;4.85;;;5.90;99.90;;;;;;5061114;28;20028;-86
2022/03/08 14:13:59;;;;;;;12.68;4.47;;;5.80;99.90;;;;;;5061400;28;20073;-86
2022/03/08 14:16:57;;;;;;;6.07;3.30;;;5.70;99.90;;;;;;5061585;28;20076;-86
2022/03/08 14:19:47;;;;;;;11.48;4.60;;;5.60;99.90;;;;;;4966068;28;20071;-89
2022/03/08 14:22:14;;;;;;;8.77;4.10;;;5.70;99.90;;;;;;4965258;28;20037;-88
2022/03/08 14:24:40;;;;;;;7.93;4.22;;;5.60;99.90;;;;;;4961880;28;20073;-88
2022/03/08 14:27:11;;;;;;;12.18;5.50;;;5.60;99.90;;;;;;4966358;28;20033;-87
2022/03/08 14:29:40;;;;;;;15.02;5.38;;;5.70;99.90;;;;;;4964420;28;20053;-87
2022/03/08 14:32:11;;;;;;;14.00;5.65;;;5.70;99.90;;;;;;4961901;28;20030;-87
2022/03/08 14:34:40;;;;;;;16.27;5.50;;;5.60;99.90;;;;;;4977837;28;20081;-87
2022/03/08 14:37:15;;;;;;;18.05;6.50;;;5.60;99.90;;;;;;4961851;28;20669;-89
2022/03/08 14:39:46;;;;;;;16.35;7.13;;;5.50;99.90;;;;;;4964129;28;20589;-87
2022/03/08 14:42:14;;;;;;;11.88;5.28;;;5.40;99.90;;;;;;4962947;28;20026;-88
2022/03/08 14:44:48;;;;;;;15.73;6.57;;;5.30;99.90;;;;;;4965086;28;20134;-88
2022/03/08 14:47:25;;;;;;;15.57;6.80;;;5.30;99.90;;;;;;4962088;28;20066;-89
2022/03/08 14:49:56;;;;;;;16.45;6.90;;;5.30;99.90;;;;;;4961522;28;20042;-88
2022/03/08 14:52:33;;;;;;;25.60;8.73;;;5.30;99.90;;;;;;4961499;28;20031;-88
2022/03/08 14:55:04;;;;;;;17.45;6.82;;;5.10;99.90;;;;;;4961386;28;20030;-90
2022/03/08 14:57:30;;;;;;;20.02;8.15;;;5.30;99.90;;;;;;5050359;28;20047;-90
2022/03/08 14:59:57;;;;;;;13.88;6.63;;;5.50;99.90;;;;;;5057020;28;20078;-91
2022/03/08 15:02:26;;;;;;;13.50;5.32;;;5.50;99.90;;;;;;5057819;28;20033;-90
2022/03/08 15:04:53;;;;;;;10.27;5.00;;;5.50;99.90;;;;;;5057468;28;20083;-89
2022/03/08 15:07:20;;;;;;;24.52;12.02;;;5.30;99.90;;;;;;5058055;28;20032;-90
2022/03/08 15:09:47;;;;;;;18.50;7.03;;;5.20;99.90;;;;;;5065633;28;20096;-90
2022/03/08 15:12:13;;;;;;;17.05;7.32;;;5.10;99.90;;;;;;5071111;28;20059;-89
2022/03/08 15:14:40;;;;;;;25.05;10.77;;;5.10;99.90;;;;;;5060589;28;20021;-90
2022/03/08 15:17:07;;;;;;;30.58;11.95;;;4.90;99.90;;;;;;5058403;28;20063;-90
2022/03/08 15:19:33;;;;;;;25.88;8.57;;;4.90;99.90;;;;;;5056543;28;20028;-91
2022/03/08 15:21:59;;;;;;;16.15;8.38;;;4.90;99.90;;;;;;5056740;28;20039;-91
2022/03/08 15:24:26;;;;;;;19.40;7.95;;;4.80;99.90;;;;;;5056554;28;20062;-89
2022/03/08 15:26:53;;;;;;;18.25;6.88;;;4.80;99.90;;;;;;5057436;28;20544;-89
2022/03/08 15:29:21;;;;;;;17.85;7.63;;;4.80;99.90;;;;;;5056890;28;20029;-90
2022/03/08 15:31:49;;;;;;;20.73;9.07;;;4.80;99.90;;;;;;5056608;28;20501;-89
2022/03/08 15:34:15;;;;;;;17.58;8.27;;;4.70;99.90;;;;;;5056562;28;20074;-90
2022/03/08 15:36:42;;;;;;;21.33;9.40;;;4.80;99.90;;;;;;5056422;28;20021;-88
2022/03/08 15:39:09;;;;;;;20.73;9.38;;;4.70;99.90;;;;;;5056328;28;20029;-88
2022/03/08 15:41:37;;;;;;;22.27;8.50;;;4.70;99.90;;;;;;5056559;28;20021;-90
2022/03/08 15:44:04;;;;;;;21.13;9.75;;;4.60;99.90;;;;;;5056008;28;20098;-89
2022/03/08 15:46:32;;;;;;;24.65;10.48;;;4.40;99.90;;;;;;5056403;28;20032;-89
2022/03/08 15:48:59;;;;;;;22.63;9.40;;;4.50;99.90;;;;;;5056318;28;20028;-88
2022/03/08 15:51:26;;;;;;;24.67;11.80;;;4.40;99.90;;;;;;5056444;28;20477;-89
2022/03/08 15:53:53;;;;;;;25.52;9.68;;;4.50;99.90;;;;;;5056404;28;20489;-89
2022/03/08 15:56:20;;;;;;;22.60;9.30;;;4.50;99.90;;;;;;5056374;28;20032;-90
2022/03/08 15:58:47;;;;;;;21.52;8.32;;;4.50;99.90;;;;;;5059813;28;20032;-91
2022/03/08 16:01:14;;;;;;;23.77;10.23;;;4.60;99.90;;;;;;5056387;28;20119;-90
2022/03/08 16:03:40;;;;;;;19.73;7.10;;;4.70;99.90;;;;;;5056339;28;20043;-90
2022/03/08 16:06:08;;;;;;;24.33;9.65;;;4.70;99.90;;;;;;5056202;28;20038;-90
2022/03/08 16:08:37;;;;;;;28.65;11.63;;;4.70;99.90;;;;;;5055953;28;20071;-90
2022/03/08 16:11:05;;;;;;;28.98;11.07;;;4.80;99.90;;;;;;5056225;28;20021;-88
2022/03/08 16:13:32;;;;;;;29.17;12.98;;;4.80;99.90;;;;;;5056165;28;20111;-89
2022/03/08 16:16:00;;;;;;;26.08;11.73;;;4.90;99.90;;;;;;5056196;28;20113;-88
2022/03/08 16:18:27;;;;;;;56.75;17.75;;;4.90;99.90;;;;;;5056034;28;20112;-88
2022/03/08 16:20:54;;;;;;;39.10;14.48;;;4.80;99.90;;;;;;5056244;28;20503;-87
2022/03/08 16:23:21;;;;;;;34.33;13.85;;;4.80;99.90;;;;;;5055929;28;20036;-88
2022/03/08 16:25:47;;;;;;;25.30;10.07;;;4.60;99.90;;;;;;5056327;28;20044;-88
2022/03/08 16:28:14;;;;;;;23.85;10.40;;;4.50;99.90;;;;;;5056115;28;20111;-88
2022/03/08 16:30:45;;;;;;;29.85;11.02;;;4.50;99.90;;;;;;5057636;28;20028;-89
2022/03/08 16:33:16;;;;;;;23.90;9.60;;;4.40;99.90;;;;;;5059764;28;20028;-88
2022/03/08 16:35:43;;;;;;;35.92;12.07;;;4.50;99.90;;;;;;5059990;28;20032;-88
2022/03/08 16:38:10;;;;;;;25.90;11.68;;;4.60;99.90;;;;;;5059737;28;20062;-88
2022/03/08 16:40:37;;;;;;;27.48;11.00;;;4.50;99.90;;;;;;5055333;28;20025;-88
2022/03/08 16:43:04;;;;;;;25.67;11.40;;;4.40;99.90;;;;;;5062429;28;20040;-88
2022/03/08 16:45:31;;;;;;;21.77;10.35;;;4.40;99.90;;;;;;5062764;28;20062;-87
2022/03/08 16:47:58;;;;;;;24.42;10.00;;;4.40;99.90;;;;;;5063049;28;20028;-88
2022/03/08 16:50:26;;;;;;;23.58;9.68;;;4.50;99.90;;;;;;5063491;28;20062;-89
2022/03/08 16:52:54;;;;;;;23.27;9.38;;;4.40;99.90;;;;;;5062829;28;20024;-89
2022/03/08 16:55:21;;;;;;;22.20;9.10;;;4.30;99.90;;;;;;5062810;28;20119;-88
2022/03/08 16:57:47;;;;;;;22.60;9.68;;;4.20;99.90;;;;;;5079441;28;20473;-88
2022/03/08 17:00:15;;;;;;;29.88;10.95;;;4.20;99.90;;;;;;5062501;28;20028;-88
2022/03/08 17:02:42;;;;;;;27.33;10.02;;;4.30;99.90;;;;;;5062634;28;20020;-88
2022/03/08 17:05:09;;;;;;;31.17;11.25;;;4.10;99.90;;;;;;5062910;28;20040;-88
2022/03/08 17:07:36;;;;;;;22.20;10.20;;;4.20;99.90;;;;;;5062397;28;20020;-88
2022/03/08 17:10:05;;;;;;;27.92;10.10;;;4.30;99.90;;;;;;5062220;28;20036;-87
2022/03/08 17:12:32;;;;;;;26.48;10.40;;;4.30;99.90;;;;;;5062158;28;20023;-86
2022/03/08 17:14:58;;;;;;;25.88;9.43;;;4.20;99.90;;;;;;5062171;28;20028;-86
2022/03/08 17:17:25;;;;;;;26.05;9.90;;;4.30;99.90;;;;;;5062090;28;20078;-86
2022/03/08 17:19:51;;;;;;;27.67;10.75;;;4.10;99.90;;;;;;5062221;28;20123;-87
2022/03/08 17:22:18;;;;;;;30.73;10.63;;;4.10;99.90;;;;;;5062353;28;20130;-87
2022/03/08 17:24:44;;;;;;;27.67;11.50;;;4.20;99.90;;;;;;5061876;28;20040;-87
2022/03/08 17:27:12;;;;;;;29.77;10.77;;;4.20;99.90;;;;;;5062065;28;20030;-87
2022/03/08 17:29:39;;;;;;;27.77;13.23;;;4.20;99.90;;;;;;5061946;28;20032;-87
2022/03/08 17:32:05;;;;;;;32.67;10.77;;;4.20;99.90;;;;;;5061857;28;20028;-87
2022/03/08 17:34:32;;;;;;;29.27;11.65;;;4.30;99.90;;;;;;5062179;28;20024;-87
2022/03/08 17:37:00;;;;;;;27.80;11.65;;;4.40;99.90;;;;;;5061831;28;20028;-87
2022/03/08 17:39:29;;;;;;;24.15;10.25;;;4.30;99.90;;;;;;5061809;28;20070;-87
2022/03/08 17:41:57;;;;;;;18.58;8.38;;;4.30;99.90;;;;;;5078415;28;20027;-87
2022/03/08 17:44:24;;;;;;;25.85;9.73;;;4.20;99.90;;;;;;5057946;28;20086;-87
2022/03/08 17:46:51;;;;;;;28.70;10.75;;;4.20;99.90;;;;;;5075070;28;20235;-88
2022/03/08 17:49:18;;;;;;;29.10;10.45;;;4.30;99.90;;;;;;5058274;28;20035;-88
2022/03/08 17:51:47;;;;;;;32.28;11.77;;;4.40;99.90;;;;;;5058481;28;20055;-87
2022/03/08 17:54:14;;;;;;;23.48;10.25;;;4.20;99.90;;;;;;5058141;28;20036;-87
2022/03/08 17:56:41;;;;;;;24.33;10.40;;;4.20;99.90;;;;;;5074812;28;20032;-88
2022/03/08 17:59:08;;;;;;;28.65;11.32;;;4.30;99.90;;;;;;5058125;28;20025;-87
2022/03/08 18:01:35;;;;;;;29.45;11.43;;;4.10;99.90;;;;;;5066456;28;20025;-88
2022/03/08 18:04:01;;;;;;;29.13;10.88;;;4.10;99.90;;;;;;5073791;28;20040;-88
2022/03/08 18:06:28;;;;;;;33.17;12.73;;;4.10;99.90;;;;;;5062441;28;20028;-89
2022/03/08 18:08:55;;;;;;;30.52;11.48;;;4.00;99.90;;;;;;5060246;28;20123;-89
2022/03/08 18:11:23;;;;;;;39.08;14.60;;;3.80;99.90;;;;;;5058926;28;20112;-89
2022/03/08 18:13:50;;;;;;;28.70;11.35;;;4.00;99.90;;;;;;5057862;28;20036;-88
2022/03/08 18:16:16;;;;;;;28.63;12.13;;;4.00;99.90;;;;;;5057663;28;20025;-86
2022/03/08 18:18:44;;;;;;;26.98;11.77;;;3.90;99.90;;;;;;5058128;28;20032;-87
2022/03/08 18:21:10;;;;;;;35.50;14.02;;;3.90;99.90;;;;;;5057601;28;20025;-87
2022/03/08 18:23:37;;;;;;;30.00;11.55;;;3.90;99.90;;;;;;5057696;28;20174;-88
2022/03/08 18:26:05;;;;;;;37.50;14.48;;;3.80;99.90;;;;;;5057562;28;20473;-88
2022/03/08 18:28:32;;;;;;;30.33;11.68;;;3.70;99.90;;;;;;5057470;28;20059;-88
2022/03/08 18:30:59;;;;;;;34.17;13.48;;;3.80;99.90;;;;;;5057323;28;20436;-88
2022/03/08 18:33:26;;;;;;;31.42;13.02;;;3.80;99.90;;;;;;5057477;28;20021;-87
2022/03/08 18:35:53;;;;;;;30.25;11.77;;;3.80;99.90;;;;;;5057228;28;20112;-88
2022/03/08 18:38:19;;;;;;;30.25;11.50;;;3.80;99.90;;;;;;5057315;28;20043;-89
2022/03/08 18:40:45;;;;;;;35.22;12.82;;;3.80;99.90;;;;;;5057097;28;20039;-87
2022/03/08 18:43:12;;;;;;;27.52;11.65;;;3.80;99.90;;;;;;5057088;28;20115;-88
2022/03/08 18:45:42;;;;;;;35.22;13.27;;;3.80;99.90;;;;;;5057449;28;20032;-87
2022/03/08 18:48:11;;;;;;;33.05;12.27;;;3.80;99.90;;;;;;5057301;28;20503;-87
2022/03/08 18:50:39;;;;;;;34.70;12.38;;;3.80;99.90;;;;;;5057048;28;20024;-87
2022/03/08 18:53:06;;;;;;;33.47;11.85;;;3.90;99.90;;;;;;5056575;28;20024;-86
2022/03/08 18:55:32;;;;;;;35.75;13.30;;;4.00;99.90;;;;;;5056938;28;20082;-87
2022/03/08 18:57:59;;;;;;;35.33;12.80;;;3.90;99.90;;;;;;5056883;28;20028;-88
2022/03/08 19:00:25;;;;;;;32.75;12.52;;;4.00;99.90;;;;;;5056869;28;20054;-86
2022/03/08 19:02:52;;;;;;;44.72;14.25;;;4.10;99.90;;;;;;5056820;28;20029;-88
2022/03/08 19:05:19;;;;;;;40.53;14.25;;;4.10;99.90;;;;;;5056809;28;20071;-88
2022/03/08 19:07:45;;;;;;;34.15;12.25;;;4.10;99.90;;;;;;5056958;28;20028;-88
2022/03/08 19:10:12;;;;;;;34.67;12.90;;;4.10;99.90;;;;;;5056746;28;20028;-88
2022/03/08 19:12:39;;;;;;;48.28;15.48;;;4.10;99.90;;;;;;5056762;28;20031;-87
2022/03/08 19:15:06;;;;;;;36.55;12.82;;;4.20;99.90;;;;;;5056584;28;20029;-86
2022/03/08 19:17:34;;;;;;;35.95;14.00;;;4.10;99.90;;;;;;5073216;28;20020;-86
2022/03/08 19:20:00;;;;;;;30.20;12.45;;;4.10;99.90;;;;;;5056610;28;20111;-85
2022/03/08 19:22:27;;;;;;;26.90;11.50;;;4.10;99.90;;;;;;5056630;28;20115;-85
2022/03/08 19:24:53;;;;;;;31.40;12.20;;;4.20;99.90;;;;;;5056415;28;20036;-89
2022/03/08 19:27:20;;;;;;;33.70;11.48;;;4.30;99.90;;;;;;5056655;28;20071;-85
2022/03/08 19:29:46;;;;;;;28.17;10.38;;;4.20;99.90;;;;;;5056549;28;20136;-88
2022/03/08 19:32:13;;;;;;;35.22;12.48;;;4.30;99.90;;;;;;5056485;28;20021;-87
2022/03/08 19:34:40;;;;;;;32.28;13.57;;;4.30;99.90;;;;;;5056328;28;20028;-86